Time;durP1;ratioP1;P1;durP2;ratioP2;P2;SDS_P1;SDS_P2;PMS_P1;PMS_P2;Temp;Humidity;BMP_temperature;BMP_pressure;BME280_temperature;BME280_humidity;BME280_pressure;Samples;Min_cycle;Max_cycle;Signal;HPM_P1;HPM_P2
2023/05/21 00:02:34;;;;;;;27.85;25.63;;;;;;;13.36;100.00;100214.53;10421865;28;20136;-72
2023/05/21 00:07:36;;;;;;;25.98;24.17;;;;;;;13.12;100.00;100206.66;10422135;28;20041;-73
2023/05/21 00:12:38;;;;;;;26.65;24.70;;;;;;;12.76;100.00;100194.91;10420451;28;20072;-73
2023/05/21 00:17:39;;;;;;;28.63;26.23;;;;;;;13.02;100.00;100191.25;10419824;28;20522;-72
2023/05/21 00:22:42;;;;;;;28.65;26.45;;;;;;;12.85;100.00;100187.50;10418347;28;20061;-73
2023/05/21 00:27:44;;;;;;;26.80;24.92;;;;;;;12.54;100.00;100186.94;10419213;28;20380;-73
2023/05/21 00:32:46;;;;;;;26.73;24.80;;;;;;;12.49;100.00;100183.63;10420450;28;20081;-73
2023/05/21 00:37:48;;;;;;;26.15;24.38;;;;;;;12.56;100.00;100171.91;10418981;28;20046;-72
2023/05/21 00:42:52;;;;;;;27.08;25.20;;;;;;;12.62;100.00;100166.41;10419488;28;20086;-73
2023/05/21 00:47:54;;;;;;;26.52;24.38;;;;;;;12.57;100.00;100168.34;10417975;28;20526;-72
2023/05/21 00:52:58;;;;;;;26.05;24.33;;;;;;;12.53;100.00;100172.03;10419287;28;20046;-72
2023/05/21 00:58:00;;;;;;;27.35;25.08;;;;;;;12.74;100.00;100163.28;10401458;28;20037;-72
2023/05/21 01:03:03;;;;;;;29.70;27.30;;;;;;;12.71;100.00;100165.22;10417543;28;20099;-72
2023/05/21 01:08:06;;;;;;;29.02;26.58;;;;;;;12.87;100.00;100161.03;10417003;28;20052;-73
2023/05/21 01:13:08;;;;;;;30.33;28.08;;;;;;;12.54;100.00;100155.28;10418273;28;20065;-73
2023/05/21 01:18:13;;;;;;;27.90;25.83;;;;;;;12.35;100.00;100157.72;10417277;28;20038;-73
2023/05/21 01:23:18;;;;;;;29.75;27.40;;;;;;;12.43;100.00;100149.56;10417259;28;20045;-73
2023/05/21 01:28:21;;;;;;;32.30;29.40;;;;;;;12.56;100.00;100148.16;10418037;28;20037;-72
2023/05/21 01:33:30;;;;;;;29.92;27.73;;;;;;;12.31;100.00;100141.19;10417801;28;20046;-73
2023/05/21 01:38:40;;;;;;;31.27;28.90;;;;;;;12.29;100.00;100142.16;10416943;28;20045;-73
2023/05/21 01:43:44;;;;;;;31.00;28.38;;;;;;;12.24;100.00;100123.03;10417773;28;20483;-73
2023/05/21 01:48:47;;;;;;;31.33;28.75;;;;;;;12.15;100.00;100126.84;10416370;28;20076;-73
2023/05/21 01:53:49;;;;;;;31.38;28.90;;;;;;;11.98;100.00;100119.56;10417180;28;20049;-72
2023/05/21 01:58:51;;;;;;;31.85;29.05;;;;;;;11.95;100.00;100116.16;10417750;28;20084;-73
2023/05/21 02:03:53;;;;;;;31.35;28.77;;;;;;;11.88;100.00;100107.66;10417323;28;20068;-73
2023/05/21 02:08:55;;;;;;;29.65;27.50;;;;;;;11.83;100.00;100105.19;10419001;28;20048;-73
2023/05/21 02:13:57;;;;;;;31.48;28.88;;;;;;;11.80;100.00;100112.28;10418288;28;20061;-73
2023/05/21 02:18:59;;;;;;;30.08;27.33;;;;;;;11.93;100.00;100105.69;10414829;28;20060;-73
2023/05/21 02:24:01;;;;;;;31.40;28.42;;;;;;;12.04;100.00;100114.09;10397913;28;20041;-73
2023/05/21 02:29:03;;;;;;;30.38;28.13;;;;;;;11.79;100.00;100118.47;10416004;28;20510;-73
2023/05/21 02:34:06;;;;;;;29.83;27.50;;;;;;;11.99;100.00;100112.50;10415199;28;20045;-72
2023/05/21 02:39:08;;;;;;;28.75;26.58;;;;;;;11.83;100.00;100102.53;10416647;28;20049;-74
2023/05/21 02:44:10;;;;;;;29.55;27.35;;;;;;;12.07;100.00;100110.47;10421975;28;20072;-74
2023/05/21 02:49:12;;;;;;;28.58;26.45;;;;;;;11.89;100.00;100103.22;10406100;28;20096;-72
2023/05/21 02:54:16;;;;;;;28.10;26.15;;;;;;;11.68;100.00;100099.56;10421835;28;20049;-73
2023/05/21 02:59:18;;;;;;;31.63;29.02;;;;;;;11.97;100.00;100096.78;10421559;28;20045;-73
2023/05/21 03:04:20;;;;;;;30.30;27.88;;;;;;;11.66;100.00;100096.97;10422313;28;20053;-73
2023/05/21 03:09:23;;;;;;;32.50;29.73;;;;;;;11.60;100.00;100097.22;10424795;28;20045;-73
2023/05/21 03:14:24;;;;;;;32.58;29.77;;;;;;;11.45;100.00;100103.84;10425487;28;20096;-73
2023/05/21 03:19:29;;;;;;;32.70;29.75;;;;;;;11.55;100.00;100102.63;10405525;28;20099;-73
2023/05/21 03:24:31;;;;;;;32.60;29.40;;;;;;;11.79;100.00;100097.41;10423149;28;20046;-72
2023/05/21 03:29:36;;;;;;;32.55;29.98;;;;;;;11.82;100.00;100092.00;10422532;28;20050;-72
2023/05/21 03:34:40;;;;;;;33.70;30.70;;;;;;;11.73;100.00;100101.13;10421919;28;20140;-72
2023/05/21 03:39:42;;;;;;;32.30;29.58;;;;;;;11.52;100.00;100097.47;10421372;28;20096;-72
2023/05/21 03:44:44;;;;;;;33.60;30.50;;;;;;;11.48;100.00;100109.00;10421718;28;20053;-72
2023/05/21 03:50:04;;;;;;;32.78;29.90;;;;;;;11.61;100.00;100101.56;10421024;28;20041;-72
2023/05/21 03:55:07;;;;;;;33.65;30.92;;;;;;;11.58;100.00;100099.03;10409454;23;20056;-70
2023/05/21 04:00:09;;;;;;;34.10;31.30;;;;;;;11.40;100.00;100105.78;10377756;28;20049;-70
2023/05/21 04:05:17;;;;;;;33.22;30.42;;;;;;;11.48;100.00;100103.75;10379497;28;20529;-70
2023/05/21 04:10:19;;;;;;;33.25;30.65;;;;;;;11.69;100.00;100101.28;10380114;28;20162;-70
2023/05/21 04:15:23;;;;;;;30.75;28.38;;;;;;;11.91;100.00;100106.66;10376695;28;20050;-70
2023/05/21 04:20:25;;;;;;;31.35;28.92;;;;;;;12.49;100.00;100100.09;10376595;28;20053;-70
2023/05/21 04:25:27;;;;;;;32.05;29.45;;;;;;;12.48;100.00;100102.78;10377435;28;20050;-69
2023/05/21 04:30:29;;;;;;;33.05;29.98;;;;;;;12.53;100.00;100101.69;10376503;28;20050;-70
2023/05/21 04:35:31;;;;;;;31.75;29.33;;;;;;;12.47;100.00;100106.34;10377334;28;20438;-70
2023/05/21 04:40:33;;;;;;;31.42;28.90;;;;;;;12.61;100.00;100104.88;10377299;28;20483;-70
2023/05/21 04:45:37;;;;;;;31.50;29.20;;;;;;;12.95;100.00;100113.25;10377963;28;20062;-70
2023/05/21 04:50:40;;;;;;;30.95;28.10;;;;;;;13.22;100.00;100111.25;10376114;28;20069;-70
2023/05/21 04:55:42;;;;;;;31.35;28.67;;;;;;;13.56;100.00;100116.88;10376876;28;20072;-70
2023/05/21 05:00:50;;;;;;;31.38;29.02;;;;;;;13.71;100.00;100107.44;10374501;28;20522;-70
2023/05/21 05:05:52;;;;;;;28.98;26.98;;;;;;;14.12;100.00;100115.28;10376168;28;20053;-70
2023/05/21 05:10:54;;;;;;;27.95;26.08;;;;;;;14.95;98.67;100111.47;10376065;28;20045;-71
2023/05/21 05:15:56;;;;;;;25.92;24.10;;;;;;;15.28;96.24;100114.25;10374941;28;20132;-70
2023/05/21 05:20:58;;;;;;;25.27;23.20;;;;;;;15.41;96.00;100109.22;10374387;28;20046;-70
2023/05/21 05:26:00;;;;;;;23.77;21.98;;;;;;;15.66;94.25;100099.09;10374445;28;20042;-70
2023/05/21 05:31:02;;;;;;;24.13;22.38;;;;;;;16.10;92.07;100091.44;10377163;28;20041;-70
2023/05/21 05:36:06;;;;;;;24.45;22.42;;;;;;;16.31;90.06;100091.25;10374283;28;20049;-70
2023/05/21 05:41:08;;;;;;;23.23;21.73;;;;;;;16.44;89.21;100088.78;10373685;28;20080;-68
2023/05/21 05:46:10;;;;;;;23.33;21.83;;;;;;;16.72;90.00;100086.31;10374224;28;20100;-68
2023/05/21 05:51:14;;;;;;;20.77;19.08;;;;;;;17.03;88.62;100082.75;10377207;28;20041;-68
2023/05/21 05:56:16;;;;;;;20.63;19.23;;;;;;;18.11;83.60;100087.88;10374078;28;20050;-68
2023/05/21 06:01:19;;;;;;;20.38;18.98;;;;;;;18.93;76.52;100079.09;10375419;28;20045;-69
2023/05/21 06:06:20;;;;;;;20.73;19.35;;;;;;;19.16;73.26;100080.22;10373494;28;20045;-69
2023/05/21 06:11:23;;;;;;;18.35;17.25;;;;;;;19.47;73.62;100084.34;10373364;28;20053;-69
2023/05/21 06:16:24;;;;;;;18.00;16.80;;;;;;;19.52;72.63;100089.38;10384657;28;20062;-69
2023/05/21 06:21:27;;;;;;;17.02;15.95;;;;;;;19.99;71.11;100079.94;10381419;28;20052;-69
2023/05/21 06:26:29;;;;;;;19.15;17.33;;;;;;;19.88;72.11;100073.56;10381210;28;20042;-69
2023/05/21 06:31:32;;;;;;;18.90;17.67;;;;;;;19.77;71.30;100076.09;10381236;28;20038;-68
2023/05/21 06:36:34;;;;;;;18.25;17.05;;;;;;;19.50;73.27;100072.66;10384875;28;20096;-69
2023/05/21 06:41:36;;;;;;;17.10;15.90;;;;;;;19.49;74.55;100084.28;10383151;28;20034;-69
2023/05/21 06:46:57;;;;;;;19.25;17.95;;;;;;;19.82;72.67;100084.63;10380820;28;20054;-69
2023/05/21 06:51:59;;;;;;;15.57;14.68;;;;;;;20.15;71.03;100083.25;10381550;28;20041;-70
2023/05/21 06:57:01;;;;;;;17.38;16.25;;;;;;;20.31;72.25;100085.66;10384100;28;20107;-71
2023/05/21 07:02:05;;;;;;;16.60;15.60;;;;;;;20.52;72.44;100086.84;10380563;28;20096;-70
2023/05/21 07:07:07;;;;;;;15.57;14.35;;;;;;;20.44;74.15;100082.97;10382272;28;20041;-70
2023/05/21 07:12:09;;;;;;;16.55;15.45;;;;;;;20.51;73.01;100082.47;10380603;28;20037;-70
2023/05/21 07:17:11;;;;;;;16.92;15.63;;;;;;;20.47;73.93;100086.28;10381673;28;20504;-70
2023/05/21 07:22:13;;;;;;;16.05;15.05;;;;;;;20.64;73.47;100085.09;10382387;28;20049;-70
2023/05/21 07:27:15;;;;;;;15.02;14.13;;;;;;;20.97;70.40;100083.59;10379294;28;20431;-69
2023/05/21 07:32:28;;;;;;;14.93;13.93;;;;;;;21.37;68.15;100079.66;10380025;28;20368;-70
2023/05/21 07:37:30;;;;;;;15.55;14.55;;;;;;;21.58;67.28;100079.84;10380477;28;20054;-70
2023/05/21 07:42:34;;;;;;;15.38;14.27;;;;;;;22.08;64.65;100079.53;10382881;28;20061;-70
2023/05/21 07:47:37;;;;;;;14.07;13.18;;;;;;;22.06;66.54;100078.81;10380015;28;20588;-70
2023/05/21 07:52:39;;;;;;;15.50;14.20;;;;;;;22.58;64.17;100080.91;10379391;28;20526;-70
2023/05/21 07:57:41;;;;;;;16.10;14.98;;;;;;;22.82;64.40;100083.41;10379494;28;20050;-70
2023/05/21 08:02:49;;;;;;;14.00;13.10;;;;;;;23.12;62.80;100077.38;10383101;28;20076;-70
2023/05/21 08:07:51;;;;;;;13.57;12.68;;;;;;;23.38;61.13;100077.03;10381138;28;20514;-70
2023/05/21 08:12:54;;;;;;;15.05;13.88;;;;;;;23.35;59.12;100088.84;10380412;28;20500;-70
2023/05/21 08:17:56;;;;;;;14.77;13.52;;;;;;;23.52;59.51;100075.84;10378659;28;20049;-69
2023/05/21 08:22:59;;;;;;;13.75;12.43;;;;;;;23.75;60.71;100084.63;10379298;28;20042;-70
2023/05/21 08:28:05;;;;;;;14.40;13.43;;;;;;;23.67;60.61;100088.81;10381205;28;20053;-69
2023/05/21 08:33:08;;;;;;;14.45;13.55;;;;;;;23.83;59.08;100092.88;10379428;28;20124;-70
2023/05/21 08:38:10;;;;;;;14.13;13.00;;;;;;;24.25;56.79;100085.59;10361929;28;20468;-69
2023/05/21 08:43:19;;;;;;;13.32;12.52;;;;;;;24.71;57.77;100078.00;10378377;28;20137;-70
2023/05/21 08:48:23;;;;;;;14.05;13.15;;;;;;;24.82;56.77;100086.78;10379110;28;20066;-71
2023/05/21 08:53:28;;;;;;;12.65;11.85;;;;;;;25.32;54.38;100089.44;10376956;28;20419;-70
2023/05/21 08:58:32;;;;;;;12.15;11.35;;;;;;;25.59;52.78;100088.69;10379182;28;20040;-69
2023/05/21 09:03:38;;;;;;;12.52;11.73;;;;;;;25.83;53.06;100076.63;10378593;28;20046;-70
2023/05/21 09:08:46;;;;;;;12.70;11.88;;;;;;;25.81;50.98;100079.47;10379472;28;20042;-70
2023/05/21 09:13:55;;;;;;;12.65;11.43;;;;;;;26.00;50.73;100072.31;10376557;28;20488;-69
2023/05/21 09:19:03;;;;;;;12.18;11.27;;;;;;;26.34;49.91;100078.84;10376003;28;20049;-70
2023/05/21 09:24:09;;;;;;;11.57;10.85;;;;;;;26.78;49.76;100080.91;10376278;28;20224;-71
2023/05/21 09:29:12;;;;;;;12.02;11.13;;;;;;;27.02;49.66;100080.31;10376024;28;20096;-71
2023/05/21 09:34:14;;;;;;;11.98;11.18;;;;;;;27.07;46.32;100072.63;10377712;28;20103;-70
2023/05/21 09:39:28;;;;;;;11.63;10.82;;;;;;;27.26;48.71;100075.19;10375758;28;20058;-70
2023/05/21 09:44:34;;;;;;;10.00;9.40;;;;;;;27.53;46.86;100079.63;10375320;28;20144;-70
2023/05/21 09:49:36;;;;;;;10.65;10.05;;;;;;;28.05;46.47;100066.16;10374887;28;20066;-69
2023/05/21 09:54:38;;;;;;;12.25;11.20;;;;;;;27.51;45.22;100073.53;10389895;22;20069;-70
2023/05/21 09:59:41;;;;;;;11.32;10.25;;;;;;;27.25;47.03;100067.25;10377115;28;20104;-70
2023/05/21 10:04:47;;;;;;;10.88;9.90;;;;;;;27.91;46.84;100064.06;10376569;28;20045;-71
2023/05/21 10:09:52;;;;;;;10.30;9.70;;;;;;;27.73;44.48;100061.41;10376807;28;20038;-70
2023/05/21 10:15:00;;;;;;;11.02;10.15;;;;;;;28.24;42.91;100056.09;10358140;28;20132;-72
2023/05/21 10:20:03;;;;;;;11.02;10.13;;;;;;;28.31;43.47;100057.16;10376965;28;20046;-70
2023/05/21 10:25:08;;;;;;;9.57;8.88;;;;;;;28.48;42.62;100052.72;10376625;28;20038;-71
2023/05/21 10:30:10;;;;;;;;;;;;;;;29.04;41.63;100064.69;10377101;28;20034;-71
2023/05/21 10:35:15;;;;;;;10.07;9.43;;;;;;;29.08;42.26;100058.78;10376005;28;20375;-70
2023/05/21 10:40:17;;;;;;;10.67;10.07;;;;;;;28.75;40.97;100057.00;10375821;28;20125;-70
2023/05/21 10:45:45;;;;;;;10.10;9.40;;;;;;;28.23;42.73;100047.16;10376651;28;20049;-71
2023/05/21 10:51:02;;;;;;;9.38;8.77;;;;;;;27.92;42.65;100042.28;10377626;28;20053;-71
2023/05/21 10:56:32;;;;;;;10.23;9.10;;;;;;;28.08;41.78;100040.69;10377311;28;20044;-70
2023/05/21 11:01:36;;;;;;;9.88;9.18;;;;;;;28.01;43.24;100039.63;10381095;28;20056;-71
2023/05/21 11:06:38;;;;;;;8.63;8.13;;;;;;;28.09;41.29;100040.50;10384321;28;20092;-72
2023/05/21 11:11:47;;;;;;;7.63;7.13;;;;;;;28.12;39.13;100039.34;10384133;28;20755;-72
2023/05/21 11:16:49;;;;;;;8.27;7.68;;;;;;;28.21;38.94;100024.88;10382263;28;20077;-71
2023/05/21 11:21:51;;;;;;;7.25;6.75;;;;;;;28.62;37.76;100035.84;10382743;28;20076;-72
2023/05/21 11:26:57;;;;;;;7.07;6.68;;;;;;;28.85;37.28;100023.38;10382337;28;20504;-72
2023/05/21 11:32:04;;;;;;;7.68;7.07;;;;;;;28.75;36.40;100017.28;10381977;28;20073;-71
2023/05/21 11:37:28;;;;;;;7.70;7.10;;;;;;;29.18;36.55;100019.91;10381965;28;20044;-71
2023/05/21 11:42:34;;;;;;;7.80;7.20;;;;;;;28.92;35.48;100016.28;10381234;28;20160;-71
2023/05/21 11:47:36;;;;;;;7.60;7.00;;;;;;;29.23;36.74;100014.81;10380862;28;20092;-71
2023/05/21 11:52:39;;;;;;;7.80;7.07;;;;;;;28.92;36.43;100019.00;10381319;28;20046;-73
2023/05/21 11:57:46;;;;;;;7.60;7.18;;;;;;;28.76;36.68;100004.59;10382655;28;20045;-72
2023/05/21 12:02:52;;;;;;;8.18;7.68;;;;;;;29.44;35.54;100009.72;10380427;28;20571;-71
2023/05/21 12:07:55;;;;;;;7.13;6.53;;;;;;;28.67;34.41;100020.81;10381348;28;20044;-71
2023/05/21 12:12:57;;;;;;;6.32;5.80;;;;;;;28.55;35.53;100019.41;10381247;28;20038;-71
2023/05/21 12:17:59;;;;;;;7.22;6.72;;;;;;;28.40;36.36;100015.66;10381064;28;20569;-72
2023/05/21 12:23:01;;;;;;;7.22;6.72;;;;;;;28.30;37.69;100010.38;10380576;28;20046;-71
2023/05/21 12:28:04;;;;;;;8.02;7.53;;;;;;;28.12;39.37;100012.34;10381211;28;20053;-71
2023/05/21 12:33:06;;;;;;;8.07;7.50;;;;;;;27.65;40.16;100016.25;10381010;28;20123;-71
2023/05/21 12:38:08;;;;;;;9.00;8.38;;;;;;;27.35;40.61;100017.56;10380541;28;20052;-71
2023/05/21 12:43:10;;;;;;;9.38;8.70;;;;;;;26.60;42.01;100025.09;10378781;28;20042;-71
2023/05/21 12:48:12;;;;;;;9.02;8.32;;;;;;;26.75;42.65;100011.97;10379136;28;20092;-71
2023/05/21 12:53:14;;;;;;;9.32;8.73;;;;;;;26.85;41.73;99996.53;10378546;28;20136;-71
2023/05/21 12:58:20;;;;;;;8.93;8.32;;;;;;;26.89;42.26;100002.47;10378800;28;20050;-72
2023/05/21 13:03:22;;;;;;;8.43;7.88;;;;;;;26.65;43.01;100003.94;10380524;28;20546;-71
2023/05/21 13:08:24;;;;;;;9.27;8.57;;;;;;;26.67;42.10;99999.22;10379460;28;20054;-72
2023/05/21 13:13:26;;;;;;;8.35;7.75;;;;;;;27.29;40.51;99993.91;10378285;28;20068;-72
2023/05/21 13:18:28;;;;;;;8.75;8.00;;;;;;;27.91;40.10;99977.59;10379331;28;20053;-72
2023/05/21 13:23:30;;;;;;;9.48;8.88;;;;;;;28.22;40.50;99977.91;10380174;28;20077;-71
2023/05/21 13:28:31;;;;;;;9.43;8.75;;;;;;;27.63;41.67;99969.69;10379767;28;20069;-72
2023/05/21 13:33:33;;;;;;;10.85;10.15;;;;;;;27.38;42.97;99965.13;10378318;28;20049;-71
2023/05/21 13:38:35;;;;;;;10.57;9.93;;;;;;;27.51;44.08;99964.69;10377858;28;20427;-71
2023/05/21 13:43:40;;;;;;;10.15;9.55;;;;;;;27.10;44.37;99956.34;10379727;28;20049;-72
2023/05/21 13:48:42;;;;;;;;;;;;;;;27.14;44.58;99969.34;10378224;28;20080;-71
2023/05/21 13:53:44;;;;;;;10.18;9.48;;;;;;;26.90;45.05;99958.31;10378152;28;19921;-72
2023/05/21 13:58:46;;;;;;;9.70;9.10;;;;;;;26.54;46.72;99955.63;10375051;28;20479;-72
2023/05/21 14:03:48;;;;;;;10.02;9.27;;;;;;;26.44;48.13;99962.09;10377197;28;20507;-70
2023/05/21 14:08:50;;;;;;;8.82;8.23;;;;;;;25.94;46.43;99962.47;10376474;28;20530;-71
2023/05/21 14:13:52;;;;;;;7.43;6.88;;;;;;;26.00;42.56;99962.75;10377967;28;20045;-72
2023/05/21 14:18:55;;;;;;;6.38;5.97;;;;;;;26.10;41.77;99965.38;10378309;28;20045;-71
2023/05/21 14:23:57;;;;;;;6.90;6.40;;;;;;;26.28;42.26;99951.94;10377638;28;20073;-71
2023/05/21 14:28:59;;;;;;;6.70;6.30;;;;;;;26.58;42.78;99951.63;10375841;28;20100;-71
2023/05/21 14:34:05;;;;;;;8.50;7.70;;;;;;;26.72;42.56;99955.63;10379419;28;20052;-71
2023/05/21 14:39:07;;;;;;;6.90;6.50;;;;;;;26.86;42.16;99957.78;10385820;28;20121;-72
2023/05/21 14:44:09;;;;;;;6.60;6.20;;;;;;;27.34;40.72;99948.41;10387100;28;20038;-71
2023/05/21 14:49:11;;;;;;;6.55;6.15;;;;;;;27.62;38.85;99950.91;10386153;28;20037;-72
2023/05/21 14:54:13;;;;;;;6.20;5.70;;;;;;;27.66;37.61;99945.03;10384013;28;20578;-72
2023/05/21 14:59:15;;;;;;;5.40;4.95;;;;;;;26.94;38.53;99959.69;10381989;28;20034;-73
2023/05/21 15:04:17;;;;;;;5.45;5.03;;;;;;;26.43;39.86;99955.84;10365491;28;20053;-70
2023/05/21 15:09:19;;;;;;;5.60;5.13;;;;;;;26.35;41.07;99958.44;10382203;28;20034;-71
2023/05/21 15:14:21;;;;;;;5.65;5.25;;;;;;;26.52;41.87;99956.78;10382384;28;20496;-70
2023/05/21 15:19:23;;;;;;;6.05;5.65;;;;;;;26.17;42.61;99953.03;10380709;28;20050;-71
2023/05/21 15:24:25;;;;;;;7.00;6.25;;;;;;;26.69;42.06;99952.38;10381831;28;20406;-70
2023/05/21 15:29:26;;;;;;;6.57;6.18;;;;;;;26.49;42.99;99949.84;10381706;28;20065;-70
2023/05/21 15:34:28;;;;;;;6.80;6.22;;;;;;;26.10;44.41;99955.44;10381562;28;20045;-70
2023/05/21 15:39:30;;;;;;;6.35;5.95;;;;;;;26.36;44.17;99941.25;10382133;28;20042;-71
2023/05/21 15:44:32;;;;;;;6.85;6.22;;;;;;;25.94;45.08;99949.00;10380574;28;20041;-69
2023/05/21 15:49:34;;;;;;;7.22;6.68;;;;;;;26.23;45.17;99938.94;10381074;28;20092;-70
2023/05/21 15:54:36;;;;;;;6.47;5.97;;;;;;;26.16;43.86;99938.69;10393678;23;20046;-72
2023/05/21 15:59:37;;;;;;;9.27;8.48;;;;;;;26.07;44.65;99934.19;10379180;28;20491;-72
2023/05/21 16:04:39;;;;;;;5.85;4.45;;;;;;;25.97;42.59;99930.72;10362276;28;20053;-72
2023/05/21 16:09:41;;;;;;;10.77;5.10;;;;;;;25.84;42.54;99924.84;10381056;28;20092;-71
2023/05/21 16:14:42;;;;;;;5.63;5.10;;;;;;;25.58;43.07;99925.47;10379426;28;20104;-72
2023/05/21 16:19:44;;;;;;;4.65;4.35;;;;;;;25.57;43.29;99917.56;10379061;28;20116;-71
2023/05/21 16:24:47;;;;;;;4.90;4.50;;;;;;;25.67;42.85;99912.97;10378900;28;20138;-71
2023/05/21 16:29:48;;;;;;;5.28;4.88;;;;;;;25.68;42.44;99914.69;10378066;28;20495;-71
2023/05/21 16:34:50;;;;;;;5.47;5.05;;;;;;;25.59;42.88;99910.19;10377504;28;20392;-71
2023/05/21 16:39:52;;;;;;;5.13;4.72;;;;;;;25.62;42.45;99924.19;10377506;28;20052;-71
2023/05/21 16:44:53;;;;;;;5.82;5.25;;;;;;;25.46;43.06;99915.91;10378342;28;20048;-71
2023/05/21 16:49:55;;;;;;;5.43;5.03;;;;;;;25.32;43.57;99921.75;10377142;28;20054;-71
2023/05/21 16:54:57;;;;;;;5.57;5.10;;;;;;;25.06;43.82;99921.50;10376950;28;20042;-71
2023/05/21 17:00:00;;;;;;;5.05;4.70;;;;;;;24.84;44.85;99919.97;10375528;28;20121;-70
2023/05/21 17:05:02;;;;;;;9.85;4.53;;;;;;;24.67;43.34;99930.44;10376967;28;20113;-71
2023/05/21 17:10:05;;;;;;;6.32;4.68;;;;;;;24.62;42.98;99921.97;10376425;28;20124;-71
2023/05/21 17:15:07;;;;;;;4.80;4.40;;;;;;;24.55;42.43;99922.66;10376364;28;20057;-71
2023/05/21 17:20:09;;;;;;;5.15;4.75;;;;;;;24.29;43.24;99911.56;10375566;28;20096;-70
2023/05/21 17:25:11;;;;;;;5.20;4.72;;;;;;;24.23;43.50;99915.69;10376545;28;20499;-71
2023/05/21 17:30:13;;;;;;;4.75;4.35;;;;;;;24.15;44.30;99931.63;10375753;28;20041;-71
2023/05/21 17:35:14;;;;;;;5.15;4.75;;;;;;;24.09;44.18;99926.81;10376307;28;20050;-70
2023/05/21 17:40:19;;;;;;;5.00;4.63;;;;;;;24.00;44.73;99927.66;10375822;28;20129;-70
2023/05/21 17:45:20;;;;;;;4.85;4.45;;;;;;;23.91;45.49;99915.91;10374685;28;20058;-70
2023/05/21 17:50:22;;;;;;;5.10;4.80;;;;;;;23.82;44.71;99920.25;10376314;28;20048;-72
2023/05/21 17:55:24;;;;;;;5.35;4.85;;;;;;;23.66;44.31;99920.75;10375569;28;20064;-72
2023/05/21 18:00:26;;;;;;;5.20;4.70;;;;;;;23.61;44.73;99924.78;10375759;28;20121;-73
2023/05/21 18:05:27;;;;;;;4.90;4.47;;;;;;;23.47;45.18;99928.69;10375644;28;20050;-72
2023/05/21 18:10:29;;;;;;;5.45;5.00;;;;;;;23.33;45.85;99931.69;10374240;28;20421;-71
2023/05/21 18:15:32;;;;;;;5.40;4.97;;;;;;;23.15;46.44;99935.00;10375613;28;20065;-73
2023/05/21 18:20:34;;;;;;;5.47;5.10;;;;;;;23.05;47.10;99935.91;10376280;28;20093;-73
2023/05/21 18:25:36;;;;;;;5.07;4.68;;;;;;;22.90;48.04;99941.59;10376042;28;20046;-72
2023/05/21 18:30:38;;;;;;;7.38;5.22;;;;;;;22.73;49.39;99949.31;10375502;28;20384;-71
2023/05/21 18:35:42;;;;;;;6.07;5.03;;;;;;;22.67;49.43;99943.50;10373710;28;20492;-71
2023/05/21 18:40:44;;;;;;;5.63;5.13;;;;;;;22.66;48.99;99949.81;10374386;28;20045;-72
2023/05/21 18:45:46;;;;;;;5.35;4.95;;;;;;;22.33;49.68;99949.94;10374738;28;20050;-72
2023/05/21 18:50:48;;;;;;;5.60;5.20;;;;;;;22.24;50.27;99961.41;10374701;28;20129;-72
2023/05/21 18:55:50;;;;;;;6.15;5.65;;;;;;;21.95;51.61;99956.53;10374433;28;20117;-72
2023/05/21 19:00:51;;;;;;;6.07;5.68;;;;;;;21.76;52.07;99959.00;10372843;28;20049;-72
2023/05/21 19:05:53;;;;;;;5.63;5.22;;;;;;;21.81;52.58;99952.28;10373994;28;20046;-72
2023/05/21 19:10:55;;;;;;;5.47;5.00;;;;;;;21.44;53.12;99953.53;10374349;28;20034;-72
2023/05/21 19:15:57;;;;;;;6.07;4.90;;;;;;;21.25;54.29;99954.03;10373879;28;20069;-72
2023/05/21 19:20:59;;;;;;;5.25;4.85;;;;;;;21.48;53.07;99961.19;10376600;28;20042;-72
2023/05/21 19:26:01;;;;;;;5.80;5.40;;;;;;;21.20;54.35;99967.75;10381796;28;20073;-72
2023/05/21 19:31:03;;;;;;;4.88;4.57;;;;;;;20.99;55.26;99964.09;10382617;28;20042;-72
2023/05/21 19:36:05;;;;;;;5.22;4.72;;;;;;;21.23;53.70;99964.03;10381002;28;20068;-72
2023/05/21 19:41:07;;;;;;;4.85;4.45;;;;;;;21.03;54.44;99966.41;10381040;28;20088;-72
2023/05/21 19:46:08;;;;;;;4.85;4.55;;;;;;;21.20;53.89;99974.94;10381103;28;20060;-72
2023/05/21 19:51:10;;;;;;;5.03;4.60;;;;;;;20.92;54.36;99975.22;10379836;28;20096;-72
2023/05/21 19:56:12;;;;;;;5.18;4.68;;;;;;;20.91;54.36;99970.00;10379244;28;20042;-72
2023/05/21 20:01:15;;;;;;;5.25;4.70;;;;;;;20.88;54.40;99963.06;10380455;28;20037;-71
2023/05/21 20:06:19;;;;;;;4.63;4.22;;;;;;;20.68;55.46;99971.75;10380769;28;20557;-71
2023/05/21 20:11:21;;;;;;;4.45;4.05;;;;;;;20.47;56.46;99974.16;10378469;28;20085;-71
2023/05/21 20:16:23;;;;;;;5.43;4.93;;;;;;;20.44;58.19;99973.50;10378733;28;20076;-72
2023/05/21 20:21:25;;;;;;;5.57;5.07;;;;;;;20.46;59.44;99966.25;10379181;28;20042;-72
2023/05/21 20:26:27;;;;;;;5.80;5.30;;;;;;;19.93;60.78;99965.69;10377979;28;20046;-72
2023/05/21 20:31:29;;;;;;;5.93;5.43;;;;;;;20.01;61.33;99964.16;10378404;28;20042;-71
2023/05/21 20:36:32;;;;;;;5.70;5.25;;;;;;;19.56;62.87;99961.06;10378513;28;20050;-72
2023/05/21 20:41:36;;;;;;;6.22;5.78;;;;;;;19.40;64.94;99969.31;10378178;28;20112;-72
2023/05/21 20:46:38;;;;;;;6.70;6.20;;;;;;;19.22;65.46;99967.91;10377710;28;20050;-72
2023/05/21 20:51:40;;;;;;;6.03;5.53;;;;;;;19.19;66.47;99967.28;10378417;28;20040;-71
2023/05/21 20:56:43;;;;;;;6.07;5.47;;;;;;;19.12;65.96;99973.03;10376154;28;20042;-72
2023/05/21 21:01:45;;;;;;;6.32;5.82;;;;;;;19.05;66.59;99977.06;10377748;28;20411;-72
2023/05/21 21:06:49;;;;;;;7.10;6.60;;;;;;;18.71;67.88;99978.47;10377300;28;20096;-72
2023/05/21 21:11:50;;;;;;;6.50;5.90;;;;;;;18.32;70.06;99976.56;10375806;28;20067;-71
2023/05/21 21:16:52;;;;;;;7.07;6.57;;;;;;;18.48;70.48;99973.78;10376052;28;20045;-72
2023/05/21 21:21:54;;;;;;;7.28;6.65;;;;;;;18.22;72.27;99970.13;10377326;28;20037;-72
2023/05/21 21:26:56;;;;;;;7.20;6.70;;;;;;;17.98;73.02;99973.41;10376645;28;20042;-72
2023/05/21 21:31:58;;;;;;;8.05;7.45;;;;;;;17.93;73.58;99971.97;10377775;28;20114;-71
2023/05/21 21:37:00;;;;;;;7.10;6.60;;;;;;;17.89;73.99;99974.84;10376843;28;20419;-71
2023/05/21 21:42:01;;;;;;;6.93;6.43;;;;;;;17.71;74.91;99977.75;10375578;28;20038;-72
2023/05/21 21:47:04;;;;;;;7.93;7.43;;;;;;;17.64;75.54;99977.28;10375692;28;20052;-71
2023/05/21 21:52:05;;;;;;;7.90;7.38;;;;;;;17.54;76.24;99977.00;10376293;28;20042;-72
2023/05/21 21:57:07;;;;;;;7.38;6.75;;;;;;;17.33;76.75;99975.66;10393264;22;20507;-74
2023/05/21 22:02:09;;;;;;;7.18;6.68;;;;;;;17.29;77.16;99968.81;10379668;28;20042;-73
2023/05/21 22:07:16;;;;;;;8.57;7.88;;;;;;;17.63;76.98;99973.78;10378101;28;20045;-73
2023/05/21 22:12:18;;;;;;;7.32;6.82;;;;;;;17.28;77.96;99967.13;10381444;28;20475;-73
2023/05/21 22:17:20;;;;;;;7.72;7.20;;;;;;;17.33;77.26;99970.34;10379061;28;20077;-73
2023/05/21 22:22:23;;;;;;;7.68;7.00;;;;;;;17.30;77.60;99970.53;10377739;28;20042;-72
2023/05/21 22:27:24;;;;;;;7.93;7.28;;;;;;;17.01;79.40;99970.47;10378055;28;20392;-73
2023/05/21 22:32:26;;;;;;;7.53;7.00;;;;;;;16.87;80.48;99971.31;10377379;28;20034;-73
2023/05/21 22:37:28;;;;;;;8.48;7.82;;;;;;;16.78;81.86;99968.34;10361960;28;20078;-73
2023/05/21 22:42:31;;;;;;;8.63;8.02;;;;;;;16.86;81.18;99958.09;10376697;28;20120;-73
2023/05/21 22:47:35;;;;;;;8.20;7.57;;;;;;;16.67;82.08;99965.41;10377382;28;20530;-73
2023/05/21 22:52:38;;;;;;;8.95;8.35;;;;;;;16.58;83.04;99967.63;10377124;28;20050;-73
2023/05/21 22:57:39;;;;;;;8.88;8.18;;;;;;;16.54;83.28;99968.75;10382379;28;20041;-73
2023/05/21 23:02:41;;;;;;;8.93;8.32;;;;;;;16.27;85.25;99967.69;10383046;28;20037;-73